Time;durP1;ratioP1;P1;durP2;ratioP2;P2;SDS_P1;SDS_P2;PMS_P1;PMS_P2;Temp;Humidity;BMP_temperature;BMP_pressure;BME280_temperature;BME280_humidity;BME280_pressure;Samples;Min_cycle;Max_cycle;Signal;HPM_P1;HPM_P2
2022/10/21 00:01:28;;;;;;;21.00;5.70;;;;;;;;;;5011266;28;20030;-71
2022/10/21 00:03:54;;;;;;;16.63;5.20;;;;;;;;;;5011547;28;20601;-71
2022/10/21 00:06:20;;;;;;;17.10;5.22;;;;;;;;;;5006184;28;20096;-71
2022/10/21 00:08:46;;;;;;;18.10;4.82;;;;;;;;;;5016348;28;20478;-71
2022/10/21 00:11:12;;;;;;;18.50;4.55;;;;;;;;;;5005152;28;20022;-71
2022/10/21 00:13:38;;;;;;;16.75;4.45;;;;;;;;;;5007569;28;20784;-71
2022/10/21 00:16:14;;;;;;;13.80;4.88;;;;;;;;;;5012964;28;20074;-71
2022/10/21 00:18:41;;;;;;;22.05;6.05;;;;;;;;;;5013064;28;20052;-71
2022/10/21 00:21:08;;;;;;;14.70;4.40;;;;;;;;;;5009599;28;20385;-71
2022/10/21 00:23:35;;;;;;;18.50;6.85;;;;;;;;;;5010270;28;20612;-71
2022/10/21 00:26:01;;;;;;;25.02;5.65;;;;;;;;;;5011113;28;20029;-71
2022/10/21 00:28:27;;;;;;;18.45;4.75;;;;;;;;;;5006672;28;20081;-71
2022/10/21 00:30:53;;;;;;;20.70;6.28;;;;;;;;;;5015666;28;20432;-71
2022/10/21 00:33:19;;;;;;;22.27;6.55;;;;;;;;;;5010462;28;20037;-71
2022/10/21 00:35:52;;;;;;;22.58;5.68;;;;;;;;;;5009414;28;20049;-71
2022/10/21 00:38:18;;;;;;;19.17;4.32;;;;;;;;;;5009986;28;20060;-71
2022/10/21 00:40:44;;;;;;;14.98;4.93;;;;;;;;;;5007539;28;20030;-71
2022/10/21 00:43:13;;;;;;;17.27;4.75;;;;;;;;;;5009484;28;20045;-71
2022/10/21 00:45:39;;;;;;;18.13;4.47;;;;;;;;;;5004488;28;20026;-71
2022/10/21 00:48:19;;;;;;;22.73;4.95;;;;;;;;;;5006616;28;20670;-72
2022/10/21 00:50:51;;;;;;;17.35;5.78;;;;;;;;;;5005391;28;20050;-72
2022/10/21 00:53:17;;;;;;;17.52;5.53;;;;;;;;;;5007855;28;20037;-72
2022/10/21 00:55:46;;;;;;;19.33;4.70;;;;;;;;;;4992265;28;20442;-72
2022/10/21 00:58:12;;;;;;;19.58;5.75;;;;;;;;;;4983144;28;20043;-72
2022/10/21 01:00:38;;;;;;;23.00;5.13;;;;;;;;;;4988835;28;20485;-72
2022/10/21 01:03:04;;;;;;;16.88;4.63;;;;;;;;;;4992423;28;20083;-72
2022/10/21 01:05:30;;;;;;;23.25;6.20;;;;;;;;;;4991652;28;20542;-71
2022/10/21 01:07:57;;;;;;;18.73;4.78;;;;;;;;;;4989725;28;20042;-72
2022/10/21 01:10:23;;;;;;;11.52;3.08;;;;;;;;;;4990426;28;20490;-71
2022/10/21 01:12:54;;;;;;;11.45;3.33;;;;;;;;;;4991250;28;20030;-72
2022/10/21 01:15:28;;;;;;;14.25;3.45;;;;;;;;;;4992457;28;20041;-72
2022/10/21 01:17:59;;;;;;;15.88;3.33;;;;;;;;;;4986168;28;20034;-71
2022/10/21 01:20:28;;;;;;;19.42;3.50;;;;;;;;;;4991661;28;20462;-72
2022/10/21 01:22:54;;;;;;;14.32;4.03;;;;;;;;;;4989816;28;20038;-72
2022/10/21 01:25:33;;;;;;;15.20;3.33;;;;;;;;;;4984512;28;20042;-72
2022/10/21 01:27:59;;;;;;;12.63;3.38;;;;;;;;;;4988382;28;20037;-72
2022/10/21 01:30:25;;;;;;;14.75;3.60;;;;;;;;;;4988061;28;20026;-71
2022/10/21 01:33:01;;;;;;;19.10;3.60;;;;;;;;;;4988775;28;20813;-72
2022/10/21 01:35:33;;;;;;;16.88;3.88;;;;;;;;;;4987296;28;20030;-72
2022/10/21 01:38:01;;;;;;;17.20;5.60;;;;;;;;;;4985990;28;20038;-72
2022/10/21 01:40:43;;;;;;;18.52;4.13;;;;;;;;;;4990963;28;20597;-72
2022/10/21 01:43:14;;;;;;;17.60;3.95;;;;;;;;;;4993565;28;20117;-72
2022/10/21 01:45:47;;;;;;;13.88;3.88;;;;;;;;;;4987014;28;20623;-71
2022/10/21 01:48:17;;;;;;;19.00;4.05;;;;;;;;;;4998622;28;20030;-72
2022/10/21 01:50:54;;;;;;;13.30;3.53;;;;;;;;;;4982279;28;20093;-72
2022/10/21 01:53:23;;;;;;;17.48;3.38;;;;;;;;;;4989785;28;20476;-72
2022/10/21 01:55:50;;;;;;;15.45;3.95;;;;;;;;;;5010361;28;20060;-72
2022/10/21 01:58:18;;;;;;;17.38;4.20;;;;;;;;;;5014025;28;20037;-71
2022/10/21 02:00:45;;;;;;;13.10;3.45;;;;;;;;;;5007253;28;20026;-72
2022/10/21 02:03:13;;;;;;;22.92;4.15;;;;;;;;;;5001475;28;20061;-72
2022/10/21 02:05:40;;;;;;;13.10;2.90;;;;;;;;;;5004442;28;20029;-72
2022/10/21 02:08:06;;;;;;;16.92;3.92;;;;;;;;;;5010222;28;20033;-72
2022/10/21 02:10:38;;;;;;;18.08;4.10;;;;;;;;;;5007571;28;20037;-71
2022/10/21 02:13:04;;;;;;;;;;;;;;;;;;5002864;28;20038;-72
2022/10/21 02:15:31;;;;;;;15.25;3.28;;;;;;;;;;5014518;28;19920;-71
2022/10/21 02:18:08;;;;;;;15.77;3.40;;;;;;;;;;5010627;28;20041;-72
2022/10/21 02:20:36;;;;;;;19.48;3.15;;;;;;;;;;5009149;28;20033;-72
2022/10/21 02:23:04;;;;;;;15.13;4.60;;;;;;;;;;5002389;28;20171;-72
2022/10/21 02:25:32;;;;;;;17.20;3.88;;;;;;;;;;5001531;28;20030;-71
2022/10/21 02:27:58;;;;;;;12.60;3.58;;;;;;;;;;5004622;28;20066;-72
2022/10/21 02:30:24;;;;;;;13.50;3.85;;;;;;;;;;5011074;28;20021;-71
2022/10/21 02:32:56;;;;;;;12.13;3.30;;;;;;;;;;4993003;28;20068;-72
2022/10/21 02:35:25;;;;;;;15.23;2.85;;;;;;;;;;5010093;28;20022;-72
2022/10/21 02:38:10;;;;;;;13.38;3.30;;;;;;;;;;5009401;28;20052;-72
2022/10/21 02:40:37;;;;;;;11.38;2.95;;;;;;;;;;5007476;28;20096;-72
2022/10/21 02:43:08;;;;;;;10.85;3.58;;;;;;;;;;5010771;28;20821;-72
2022/10/21 02:45:35;;;;;;;13.95;3.80;;;;;;;;;;5006146;28;20473;-72
2022/10/21 02:48:01;;;;;;;17.77;4.45;;;;;;;;;;5011478;28;20038;-72
2022/10/21 02:50:27;;;;;;;19.40;3.65;;;;;;;;;;5006697;28;20401;-72
2022/10/21 02:52:53;;;;;;;12.27;3.90;;;;;;;;;;4992553;28;20449;-72
2022/10/21 02:55:19;;;;;;;17.85;4.40;;;;;;;;;;5012414;28;20049;-72
2022/10/21 02:57:45;;;;;;;13.20;4.10;;;;;;;;;;5006174;28;20031;-72
2022/10/21 03:00:11;;;;;;;13.18;4.00;;;;;;;;;;5007397;28;20417;-71
2022/10/21 03:02:37;;;;;;;13.90;3.47;;;;;;;;;;5008176;28;20034;-72
2022/10/21 03:05:03;;;;;;;17.83;4.45;;;;;;;;;;5010193;28;20029;-72
2022/10/21 03:07:29;;;;;;;18.00;5.25;;;;;;;;;;5005141;28;20109;-72
2022/10/21 03:09:55;;;;;;;17.58;4.00;;;;;;;;;;5012835;28;20061;-72
2022/10/21 03:12:21;;;;;;;18.05;4.30;;;;;;;;;;5005772;28;20441;-71
2022/10/21 03:14:47;;;;;;;17.45;3.83;;;;;;;;;;5011626;28;20041;-72
2022/10/21 03:17:13;;;;;;;15.88;3.55;;;;;;;;;;5015175;28;20041;-72
2022/10/21 03:19:39;;;;;;;16.67;4.20;;;;;;;;;;5012855;28;20098;-72
2022/10/21 03:22:05;;;;;;;16.83;3.83;;;;;;;;;;5004061;28;20049;-72
2022/10/21 03:24:31;;;;;;;17.08;4.15;;;;;;;;;;5010644;28;20043;-72
2022/10/21 03:26:57;;;;;;;16.02;3.45;;;;;;;;;;5010719;28;20026;-72
2022/10/21 03:29:23;;;;;;;12.85;3.03;;;;;;;;;;5003150;28;20977;-72
2022/10/21 03:31:49;;;;;;;12.20;3.13;;;;;;;;;;5017487;28;20036;-72
2022/10/21 03:34:15;;;;;;;14.35;3.13;;;;;;;;;;5015182;28;20911;-72
2022/10/21 03:36:41;;;;;;;16.25;4.18;;;;;;;;;;5012011;28;20033;-72
2022/10/21 03:39:07;;;;;;;15.43;3.70;;;;;;;;;;5005662;28;20088;-72
2022/10/21 03:41:33;;;;;;;17.42;3.80;;;;;;;;;;5013515;28;20065;-72
2022/10/21 03:43:59;;;;;;;18.58;4.30;;;;;;;;;;5010272;28;20497;-72
2022/10/21 03:46:25;;;;;;;18.95;3.47;;;;;;;;;;5012979;28;20037;-72
2022/10/21 03:48:51;;;;;;;14.02;2.75;;;;;;;;;;5013653;28;20125;-72
2022/10/21 03:51:17;;;;;;;14.15;3.10;;;;;;;;;;5007870;28;20033;-72
2022/10/21 03:53:43;;;;;;;12.68;3.35;;;;;;;;;;5009292;28;20624;-72
2022/10/21 03:56:09;;;;;;;17.65;3.10;;;;;;;;;;5012983;28;20069;-72
2022/10/21 03:58:35;;;;;;;17.77;5.05;;;;;;;;;;5008768;28;20073;-72
2022/10/21 04:01:01;;;;;;;16.67;3.33;;;;;;;;;;5007650;28;20038;-72
2022/10/21 04:03:27;;;;;;;22.95;4.75;;;;;;;;;;5011664;28;20042;-72
2022/10/21 04:05:54;;;;;;;22.15;3.97;;;;;;;;;;5007391;28;20026;-71
2022/10/21 04:08:20;;;;;;;19.55;4.68;;;;;;;;;;5010718;28;20040;-72
2022/10/21 04:10:46;;;;;;;14.27;4.22;;;;;;;;;;5012540;28;20030;-72
2022/10/21 04:13:12;;;;;;;20.48;6.70;;;;;;;;;;5017071;28;20051;-72
2022/10/21 04:15:38;;;;;;;24.25;5.13;;;;;;;;;;5006250;28;20030;-72
2022/10/21 04:18:05;;;;;;;15.07;5.10;;;;;;;;;;5005692;28;20132;-72
2022/10/21 04:20:31;;;;;;;12.35;4.45;;;;;;;;;;5015139;28;20772;-71
2022/10/21 04:22:57;;;;;;;13.38;5.25;;;;;;;;;;5004881;28;20038;-71
2022/10/21 04:25:23;;;;;;;16.65;5.55;;;;;;;;;;5011604;28;20092;-71
2022/10/21 04:27:49;;;;;;;11.98;4.97;;;;;;;;;;5009349;28;20112;-72
2022/10/21 04:30:15;;;;;;;15.43;5.63;;;;;;;;;;5008011;28;20029;-72
2022/10/21 04:32:41;;;;;;;10.40;4.20;;;;;;;;;;5013267;28;20109;-71
2022/10/21 04:35:08;;;;;;;19.58;7.07;;;;;;;;;;5011630;28;20511;-72
2022/10/21 04:37:38;;;;;;;18.75;6.20;;;;;;;;;;5011236;28;20034;-71
2022/10/21 04:40:05;;;;;;;25.15;8.10;;;;;;;;;;5010487;28;20030;-71
2022/10/21 04:42:30;;;;;;;19.30;7.10;;;;;;;;;;5006143;28;20038;-71
2022/10/21 04:44:57;;;;;;;18.27;5.78;;;;;;;;;;5011904;28;20048;-72
2022/10/21 04:47:23;;;;;;;16.20;5.88;;;;;;;;;;5005165;28;20369;-71
2022/10/21 04:49:48;;;;;;;17.00;4.13;;;;;;;;;;5009621;28;20796;-72
2022/10/21 04:52:14;;;;;;;11.68;3.08;;;;;;;;;;5008913;28;20037;-71
2022/10/21 04:54:40;;;;;;;13.18;3.67;;;;;;;;;;5008876;28;20077;-72
2022/10/21 04:57:06;;;;;;;13.43;5.20;;;;;;;;;;5008778;28;20034;-71
2022/10/21 04:59:33;;;;;;;9.85;3.92;;;;;;;;;;5004374;28;20104;-71
2022/10/21 05:01:59;;;;;;;13.00;3.30;;;;;;;;;;5010109;28;20030;-72
2022/10/21 05:04:25;;;;;;;7.30;1.95;;;;;;;;;;5012434;28;20060;-72
2022/10/21 05:06:51;;;;;;;10.43;1.77;;;;;;;;;;5009712;28;20030;-72
2022/10/21 05:09:17;;;;;;;9.60;1.88;;;;;;;;;;5004616;28;20068;-72
2022/10/21 05:11:43;;;;;;;11.88;2.47;;;;;;;;;;5011312;28;20112;-72
2022/10/21 05:14:09;;;;;;;9.98;2.05;;;;;;;;;;4989936;28;20045;-72
2022/10/21 05:16:35;;;;;;;8.02;2.00;;;;;;;;;;5008466;28;20030;-73
2022/10/21 05:19:01;;;;;;;9.82;2.00;;;;;;;;;;5006078;28;20060;-72
2022/10/21 05:21:27;;;;;;;10.30;3.42;;;;;;;;;;5010551;28;21110;-72
2022/10/21 05:23:53;;;;;;;7.13;1.70;;;;;;;;;;5008257;28;20041;-72
2022/10/21 05:26:19;;;;;;;7.43;1.85;;;;;;;;;;5003545;28;20033;-72
2022/10/21 05:28:45;;;;;;;10.10;2.40;;;;;;;;;;4988012;28;20030;-72
2022/10/21 05:31:11;;;;;;;9.18;1.65;;;;;;;;;;5003272;28;20038;-72
2022/10/21 05:33:37;;;;;;;12.68;3.15;;;;;;;;;;5005373;28;20034;-72
2022/10/21 05:36:06;;;;;;;17.95;3.40;;;;;;;;;;5008554;28;20053;-72
2022/10/21 05:38:32;;;;;;;11.82;2.50;;;;;;;;;;5005464;28;20994;-72
2022/10/21 05:40:58;;;;;;;15.50;3.03;;;;;;;;;;5004986;28;20048;-72
2022/10/21 05:43:26;;;;;;;15.98;3.28;;;;;;;;;;5015457;28;20042;-72
2022/10/21 05:45:52;;;;;;;16.08;3.63;;;;;;;;;;5009585;28;20026;-72
2022/10/21 05:48:18;;;;;;;11.98;2.85;;;;;;;;;;5007387;28;20044;-72
2022/10/21 05:50:45;;;;;;;17.05;3.97;;;;;;;;;;5010273;28;20053;-72
2022/10/21 05:53:11;;;;;;;14.00;2.75;;;;;;;;;;5009798;28;20468;-72
2022/10/21 05:55:37;;;;;;;12.85;2.78;;;;;;;;;;5008454;28;20127;-72
2022/10/21 05:58:03;;;;;;;13.57;2.58;;;;;;;;;;5013683;28;20045;-72
2022/10/21 06:00:29;;;;;;;12.77;2.15;;;;;;;;;;5007723;28;20034;-72
2022/10/21 06:02:55;;;;;;;12.82;1.88;;;;;;;;;;5008367;28;20132;-72
2022/10/21 06:05:21;;;;;;;12.82;1.00;;;;;;;;;;4998143;28;20089;-71
2022/10/21 06:07:47;;;;;;;9.23;1.27;;;;;;;;;;5008304;28;20036;-71
2022/10/21 06:10:15;;;;;;;9.65;1.23;;;;;;;;;;5010058;28;21102;-71
2022/10/21 06:12:41;;;;;;;6.60;1.10;;;;;;;;;;5002346;28;20030;-72
2022/10/21 06:15:07;;;;;;;8.15;2.03;;;;;;;;;;5009551;28;20026;-72
2022/10/21 06:17:33;;;;;;;12.50;2.60;;;;;;;;;;4998904;28;20073;-72
2022/10/21 06:20:00;;;;;;;11.55;3.03;;;;;;;;;;5002139;28;20116;-72
2022/10/21 06:22:26;;;;;;;13.35;2.92;;;;;;;;;;5008382;28;20079;-71
2022/10/21 06:24:52;;;;;;;15.32;3.35;;;;;;;;;;5006126;28;20030;-71
2022/10/21 06:27:19;;;;;;;11.82;3.33;;;;;;;;;;4987048;28;20056;-72
2022/10/21 06:29:45;;;;;;;10.70;2.42;;;;;;;;;;5007009;28;20026;-71
2022/10/21 06:32:11;;;;;;;12.00;3.05;;;;;;;;;;5005389;28;20053;-72
2022/10/21 06:34:37;;;;;;;14.90;3.35;;;;;;;;;;5002204;28;20030;-72
2022/10/21 06:37:03;;;;;;;11.05;3.58;;;;;;;;;;5005796;28;20042;-72
2022/10/21 06:39:29;;;;;;;13.98;3.47;;;;;;;;;;5003604;28;20128;-72
2022/10/21 06:41:55;;;;;;;11.73;2.60;;;;;;;;;;5006707;28;20037;-72
2022/10/21 06:44:21;;;;;;;15.18;3.65;;;;;;;;;;5010804;28;20049;-72
2022/10/21 06:46:47;;;;;;;15.65;3.65;;;;;;;;;;5003317;28;20460;-72
2022/10/21 06:49:13;;;;;;;8.27;2.30;;;;;;;;;;5006441;28;20044;-72
2022/10/21 06:51:39;;;;;;;14.65;2.55;;;;;;;;;;5002633;28;20478;-71
2022/10/21 06:54:05;;;;;;;12.85;2.38;;;;;;;;;;5002366;28;20062;-72
2022/10/21 06:56:31;;;;;;;15.25;2.58;;;;;;;;;;5004583;28;20034;-72
2022/10/21 06:58:58;;;;;;;16.75;3.13;;;;;;;;;;5004504;28;22160;-72
2022/10/21 07:01:25;;;;;;;13.55;2.92;;;;;;;;;;5009315;28;20121;-72
2022/10/21 07:03:51;;;;;;;16.67;2.13;;;;;;;;;;5010527;28;20038;-71
2022/10/21 07:06:17;;;;;;;14.50;1.92;;;;;;;;;;5006972;28;20025;-72
2022/10/21 07:08:43;;;;;;;11.82;2.70;;;;;;;;;;5009884;28;20479;-71
2022/10/21 07:11:10;;;;;;;12.45;2.97;;;;;;;;;;5011171;28;20521;-72
2022/10/21 07:13:36;;;;;;;17.85;2.75;;;;;;;;;;5007062;28;20030;-72
2022/10/21 07:16:03;;;;;;;12.63;2.42;;;;;;;;;;5006966;28;20469;-72
2022/10/21 07:18:29;;;;;;;11.45;2.10;;;;;;;;;;5008117;28;20056;-72
2022/10/21 07:20:55;;;;;;;13.60;1.75;;;;;;;;;;5006963;28;20417;-72
2022/10/21 07:23:21;;;;;;;8.27;2.15;;;;;;;;;;4989578;28;20037;-72
2022/10/21 07:25:47;;;;;;;12.50;2.95;;;;;;;;;;5011630;28;20032;-72
2022/10/21 07:28:13;;;;;;;13.27;3.95;;;;;;;;;;5007657;28;20030;-72
2022/10/21 07:30:43;;;;;;;10.95;2.08;;;;;;;;;;4995441;28;20022;-71
2022/10/21 07:33:09;;;;;;;13.32;2.20;;;;;;;;;;5007979;28;20458;-72
2022/10/21 07:35:35;;;;;;;16.05;2.97;;;;;;;;;;5009416;28;20377;-72
2022/10/21 07:38:01;;;;;;;12.90;2.65;;;;;;;;;;5007872;28;20044;-72
2022/10/21 07:40:28;;;;;;;15.65;2.42;;;;;;;;;;5006837;28;20044;-72
2022/10/21 07:42:54;;;;;;;11.00;2.05;;;;;;;;;;5004012;28;20034;-71
2022/10/21 07:45:20;;;;;;;16.42;2.95;;;;;;;;;;5010451;28;20026;-71
2022/10/21 07:47:47;;;;;;;12.13;2.10;;;;;;;;;;5006498;28;20369;-71
2022/10/21 07:50:13;;;;;;;14.25;2.92;;;;;;;;;;5010535;28;20037;-71
2022/10/21 07:52:44;;;;;;;12.38;2.85;;;;;;;;;;5010274;28;20103;-72
2022/10/21 07:55:13;;;;;;;14.15;2.42;;;;;;;;;;5005338;28;20073;-71
2022/10/21 07:57:39;;;;;;;14.13;2.90;;;;;;;;;;5009290;28;20034;-71
2022/10/21 08:00:06;;;;;;;12.63;2.05;;;;;;;;;;5005354;28;20049;-71
2022/10/21 08:02:33;;;;;;;10.23;2.10;;;;;;;;;;5008112;28;20116;-71
2022/10/21 08:04:59;;;;;;;14.20;2.17;;;;;;;;;;5004868;28;20100;-71
2022/10/21 08:07:25;;;;;;;9.65;1.73;;;;;;;;;;5006168;28;20030;-71
2022/10/21 08:09:51;;;;;;;8.48;1.65;;;;;;;;;;5007402;28;20030;-71
2022/10/21 08:12:17;;;;;;;11.68;2.05;;;;;;;;;;5008515;28;20033;-71
2022/10/21 08:14:43;;;;;;;11.40;1.83;;;;;;;;;;5009588;28;20337;-71
2022/10/21 08:17:09;;;;;;;11.18;2.00;;;;;;;;;;5005302;28;20040;-71
2022/10/21 08:19:35;;;;;;;9.40;1.60;;;;;;;;;;5013040;28;20568;-71
2022/10/21 08:22:01;;;;;;;13.75;2.20;;;;;;;;;;5004437;28;20037;-71
2022/10/21 08:24:27;;;;;;;12.80;1.95;;;;;;;;;;5006407;28;20042;-71
2022/10/21 08:26:53;;;;;;;10.38;2.38;;;;;;;;;;5006817;28;20489;-71
2022/10/21 08:29:19;;;;;;;5.55;1.00;;;;;;;;;;5005213;28;20465;-71
2022/10/21 08:31:45;;;;;;;10.55;1.80;;;;;;;;;;5006162;28;20029;-71
2022/10/21 08:34:12;;;;;;;11.07;1.73;;;;;;;;;;5007751;28;20113;-72
2022/10/21 08:36:38;;;;;;;8.20;1.17;;;;;;;;;;5008421;28;20683;-71
2022/10/21 08:39:05;;;;;;;6.65;1.23;;;;;;;;;;5008801;28;20140;-72
2022/10/21 08:41:31;;;;;;;5.20;0.90;;;;;;;;;;5007923;28;20124;-71
2022/10/21 08:44:01;;;;;;;3.03;0.60;;;;;;;;;;5004329;28;20048;-72
2022/10/21 08:46:33;;;;;;;3.35;0.40;;;;;;;;;;5005272;28;20025;-71
2022/10/21 08:49:04;;;;;;;2.20;0.50;;;;;;;;;;5005883;28;20149;-72
2022/10/21 08:51:42;;;;;;;3.78;0.60;;;;;;;;;;5007994;28;21175;-72
2022/10/21 08:54:14;;;;;;;4.22;0.90;;;;;;;;;;5004545;28;20061;-72
2022/10/21 08:56:40;;;;;;;11.68;1.80;;;;;;;;;;5013341;28;20029;-72
2022/10/21 08:59:14;;;;;;;8.52;1.63;;;;;;;;;;5006363;28;20030;-72
2022/10/21 09:01:53;;;;;;;6.80;1.42;;;;;;;;;;5002546;28;20066;-71
2022/10/21 09:04:35;;;;;;;14.45;3.05;;;;;;;;;;5005460;28;20124;-71
2022/10/21 09:07:07;;;;;;;6.93;1.80;;;;;;;;;;5004450;28;20030;-72
2022/10/21 09:09:33;;;;;;;;;;;;;;;;;;5006401;28;20444;-72
2022/10/21 09:11:59;;;;;;;12.05;2.55;;;;;;;;;;5009533;28;19952;-71
2022/10/21 09:14:44;;;;;;;10.23;2.38;;;;;;;;;;5012235;28;20049;-72
2022/10/21 09:17:28;;;;;;;10.00;2.67;;;;;;;;;;5006198;28;20036;-72
2022/10/21 09:20:09;;;;;;;11.73;2.70;;;;;;;;;;5007648;28;20504;-72
2022/10/21 09:22:51;;;;;;;11.93;1.70;;;;;;;;;;5004628;28;20420;-71
2022/10/21 09:25:23;;;;;;;10.50;1.60;;;;;;;;;;5004937;28;20041;-71
2022/10/21 09:27:49;;;;;;;;;;;;;;;;;;5005012;28;20022;-71
2022/10/21 09:30:17;;;;;;;7.68;1.60;;;;;;;;;;5005352;28;19913;-71
2022/10/21 09:32:48;;;;;;;7.15;1.73;;;;;;;;;;5003903;28;20026;-71
2022/10/21 09:35:22;;;;;;;9.63;1.42;;;;;;;;;;5000992;28;20030;-71
2022/10/21 09:37:51;;;;;;;4.50;0.90;;;;;;;;;;5004001;28;20026;-71
2022/10/21 09:40:19;;;;;;;6.80;1.63;;;;;;;;;;5006737;28;20044;-71
2022/10/21 09:42:46;;;;;;;7.78;1.08;;;;;;;;;;5005996;28;20380;-71
2022/10/21 09:45:17;;;;;;;8.27;1.38;;;;;;;;;;5007726;28;20212;-71
2022/10/21 09:47:44;;;;;;;5.30;1.10;;;;;;;;;;5004237;28;20076;-71
2022/10/21 09:50:14;;;;;;;8.25;0.80;;;;;;;;;;5006459;28;20153;-71
2022/10/21 09:52:52;;;;;;;8.00;1.00;;;;;;;;;;5001758;28;20069;-71
2022/10/21 09:55:18;;;;;;;10.30;1.30;;;;;;;;;;5004028;28;20057;-71
2022/10/21 09:57:47;;;;;;;9.48;1.40;;;;;;;;;;5006738;28;20112;-71
2022/10/21 10:00:13;;;;;;;7.07;1.45;;;;;;;;;;5008209;28;20035;-71
2022/10/21 10:02:44;;;;;;;7.25;0.88;;;;;;;;;;5003310;28;20029;-71
2022/10/21 10:05:29;;;;;;;4.85;1.27;;;;;;;;;;5006999;28;20457;-71
2022/10/21 10:07:55;;;;;;;4.60;1.23;;;;;;;;;;5004040;28;20534;-71
2022/10/21 10:10:29;;;;;;;6.78;1.00;;;;;;;;;;5007094;28;20029;-71
2022/10/21 10:12:56;;;;;;;6.43;0.85;;;;;;;;;;5004095;28;20041;-71
2022/10/21 10:15:24;;;;;;;7.53;1.15;;;;;;;;;;5005704;28;20029;-71
2022/10/21 10:17:56;;;;;;;3.78;0.82;;;;;;;;;;5004724;28;20030;-71
2022/10/21 10:20:22;;;;;;;11.60;1.75;;;;;;;;;;5007690;28;20916;-71
2022/10/21 10:22:57;;;;;;;8.35;1.15;;;;;;;;;;5002195;28;20076;-71
2022/10/21 10:25:25;;;;;;;6.15;0.82;;;;;;;;;;4999496;28;20062;-71
2022/10/21 10:27:55;;;;;;;7.90;1.30;;;;;;;;;;4999191;28;20014;-72
2022/10/21 10:30:22;;;;;;;5.93;0.80;;;;;;;;;;5002277;28;20085;-71
2022/10/21 10:32:50;;;;;;;8.45;1.25;;;;;;;;;;5003681;28;20026;-71
2022/10/21 10:35:30;;;;;;;7.50;1.45;;;;;;;;;;5005987;28;20048;-72
2022/10/21 10:37:57;;;;;;;5.20;0.80;;;;;;;;;;5004488;28;20069;-71
2022/10/21 10:40:31;;;;;;;5.13;0.77;;;;;;;;;;5001190;28;20730;-71
2022/10/21 10:43:03;;;;;;;6.70;1.00;;;;;;;;;;5004135;28;20069;-72
2022/10/21 10:45:29;;;;;;;3.70;0.88;;;;;;;;;;5007324;28;20124;-71
2022/10/21 10:48:02;;;;;;;4.93;1.08;;;;;;;;;;5007695;28;20030;-71
2022/10/21 10:50:37;;;;;;;3.70;0.73;;;;;;;;;;5007268;28;20064;-71
2022/10/21 10:53:26;;;;;;;5.20;1.00;;;;;;;;;;5005117;28;20057;-72
2022/10/21 10:56:15;;;;;;;5.72;0.73;;;;;;;;;;5005160;28;20133;-71
2022/10/21 10:58:47;;;;;;;3.53;0.50;;;;;;;;;;4992733;28;20053;-71
2022/10/21 11:01:18;;;;;;;4.38;0.55;;;;;;;;;;5003850;28;20037;-71
2022/10/21 11:03:55;;;;;;;3.67;0.60;;;;;;;;;;5007795;28;20552;-71
2022/10/21 11:06:27;;;;;;;3.15;0.40;;;;;;;;;;5002251;28;20045;-71
2022/10/21 11:08:58;;;;;;;5.90;0.60;;;;;;;;;;5005338;28;20060;-72
2022/10/21 11:11:30;;;;;;;2.28;0.50;;;;;;;;;;5003786;28;20026;-71
2022/10/21 11:13:56;;;;;;;4.60;0.68;;;;;;;;;;5001392;28;20053;-72
2022/10/21 11:16:41;;;;;;;4.20;0.50;;;;;;;;;;5004993;28;20112;-72
2022/10/21 11:19:11;;;;;;;3.63;0.50;;;;;;;;;;5003455;28;20046;-71
2022/10/21 11:21:45;;;;;;;5.65;0.90;;;;;;;;;;5007743;28;20083;-71
2022/10/21 11:24:19;;;;;;;1.83;0.60;;;;;;;;;;5005137;28;20120;-71
2022/10/21 11:26:48;;;;;;;7.88;0.70;;;;;;;;;;4999850;28;20497;-71
2022/10/21 11:29:38;;;;;;;5.13;0.70;;;;;;;;;;5006240;28;20038;-71
2022/10/21 11:32:10;;;;;;;5.47;1.38;;;;;;;;;;4992292;28;21142;-72
2022/10/21 11:34:36;;;;;;;;;;;;;;;;;;5005655;28;20073;-72
2022/10/21 11:37:06;;;;;;;5.72;0.90;;;;;;;;;;5007303;28;20388;-72
2022/10/21 11:39:35;;;;;;;4.60;0.85;;;;;;;;;;5004548;28;20037;-71
2022/10/21 11:42:11;;;;;;;5.93;0.68;;;;;;;;;;5004598;28;20037;-72
2022/10/21 11:44:56;;;;;;;3.15;0.45;;;;;;;;;;5002841;28;20087;-72
2022/10/21 11:47:31;;;;;;;2.75;0.80;;;;;;;;;;5007125;28;20037;-72
2022/10/21 11:49:59;;;;;;;2.33;0.40;;;;;;;;;;5007604;28;20117;-72
2022/10/21 11:52:36;;;;;;;4.28;0.93;;;;;;;;;;5004787;28;20036;-71
2022/10/21 11:55:21;;;;;;;6.63;0.77;;;;;;;;;;5007544;28;20833;-71
2022/10/21 11:58:01;;;;;;;5.95;0.93;;;;;;;;;;5004470;28;20030;-72
2022/10/21 12:00:28;;;;;;;3.47;0.93;;;;;;;;;;4989831;28;20405;-71
2022/10/21 12:03:03;;;;;;;7.93;1.30;;;;;;;;;;5008636;28;20052;-71
2022/10/21 12:05:32;;;;;;;5.18;0.93;;;;;;;;;;5005937;28;20706;-71
2022/10/21 12:08:11;;;;;;;5.50;0.88;;;;;;;;;;5005774;28;20821;-71
2022/10/21 12:11:00;;;;;;;5.78;1.30;;;;;;;;;;5009365;28;20068;-71
2022/10/21 12:13:29;;;;;;;9.30;1.20;;;;;;;;;;4998875;28;20046;-71
2022/10/21 12:15:57;;;;;;;7.38;1.20;;;;;;;;;;5004880;28;20033;-71
2022/10/21 12:18:25;;;;;;;4.90;0.82;;;;;;;;;;5005107;28;20085;-71
2022/10/21 12:20:53;;;;;;;5.07;0.70;;;;;;;;;;5004816;28;20037;-71
2022/10/21 12:23:21;;;;;;;2.40;0.43;;;;;;;;;;5010521;28;20041;-71
2022/10/21 12:25:56;;;;;;;5.55;0.65;;;;;;;;;;5006757;28;20040;-71
2022/10/21 12:28:40;;;;;;;4.82;1.15;;;;;;;;;;5002904;28;20038;-71
2022/10/21 12:31:25;;;;;;;3.90;1.13;;;;;;;;;;5010405;28;20030;-71
2022/10/21 12:33:52;;;;;;;3.72;0.50;;;;;;;;;;5006259;28;20087;-70
2022/10/21 12:36:20;;;;;;;6.88;0.80;;;;;;;;;;5010738;28;20049;-70
2022/10/21 12:38:48;;;;;;;6.00;0.90;;;;;;;;;;5006556;28;20046;-71
2022/10/21 12:41:24;;;;;;;3.08;0.50;;;;;;;;;;5008330;28;20137;-71
2022/10/21 12:43:57;;;;;;;2.72;0.57;;;;;;;;;;5008623;28;20129;-70
2022/10/21 12:46:25;;;;;;;3.08;0.77;;;;;;;;;;5008267;28;20789;-71
2022/10/21 12:48:52;;;;;;;6.93;0.88;;;;;;;;;;5008411;28;20061;-71
2022/10/21 12:51:19;;;;;;;4.07;0.70;;;;;;;;;;5003593;28;21075;-71
2022/10/21 12:54:11;;;;;;;6.00;1.10;;;;;;;;;;5007717;28;20034;-71
2022/10/21 12:56:47;;;;;;;5.43;0.82;;;;;;;;;;5002075;28;20053;-71
2022/10/21 12:59:30;;;;;;;5.00;1.02;;;;;;;;;;5008767;28;20045;-71
2022/10/21 13:02:06;;;;;;;6.00;0.75;;;;;;;;;;5004340;28;20283;-70
2022/10/21 13:04:32;;;;;;;5.35;1.35;;;;;;;;;;5014440;28;20052;-70
2022/10/21 13:07:00;;;;;;;8.10;1.17;;;;;;;;;;5006140;28;20029;-70
2022/10/21 13:09:41;;;;;;;4.88;0.73;;;;;;;;;;5009694;28;20661;-71
2022/10/21 13:12:10;;;;;;;3.60;0.82;;;;;;;;;;5012086;28;20096;-71
2022/10/21 13:14:49;;;;;;;2.15;0.40;;;;;;;;;;5006109;28;20038;-70
2022/10/21 13:17:15;;;;;;;4.03;0.50;;;;;;;;;;5006682;28;20116;-71
2022/10/21 13:19:41;;;;;;;4.65;0.60;;;;;;;;;;5009457;28;20037;-71
2022/10/21 13:22:37;;;;;;;4.70;0.82;;;;;;;;;;5006570;28;20037;-71
2022/10/21 13:25:18;;;;;;;4.22;1.02;;;;;;;;;;4991150;28;20058;-71
2022/10/21 13:27:45;;;;;;;3.63;0.68;;;;;;;;;;5000970;28;20217;-71
2022/10/21 13:30:26;;;;;;;6.03;1.20;;;;;;;;;;5005792;28;20089;-71
2022/10/21 13:33:02;;;;;;;3.00;0.80;;;;;;;;;;5008060;28;20053;-71
2022/10/21 13:35:33;;;;;;;3.72;0.68;;;;;;;;;;5004877;28;20053;-71
2022/10/21 13:38:02;;;;;;;2.60;0.50;;;;;;;;;;5009197;28;20046;-71
2022/10/21 13:40:48;;;;;;;1.63;0.40;;;;;;;;;;5005258;28;20458;-71
2022/10/21 13:43:17;;;;;;;3.55;0.80;;;;;;;;;;5007874;28;20552;-71
2022/10/21 13:45:47;;;;;;;3.42;0.68;;;;;;;;;;5005957;28;20038;-71
2022/10/21 13:48:14;;;;;;;4.78;0.43;;;;;;;;;;5009342;28;20032;-71
2022/10/21 13:50:41;;;;;;;1.85;0.55;;;;;;;;;;5003889;28;20041;-71
2022/10/21 13:53:17;;;;;;;5.65;0.90;;;;;;;;;;5005566;28;20040;-71
2022/10/21 13:55:52;;;;;;;4.22;1.08;;;;;;;;;;5006329;28;20045;-71
2022/10/21 13:58:18;;;;;;;4.75;0.75;;;;;;;;;;5003589;28;20037;-71
2022/10/21 14:00:44;;;;;;;2.85;0.77;;;;;;;;;;5004999;28;20570;-71
2022/10/21 14:03:16;;;;;;;4.03;0.80;;;;;;;;;;5003997;28;20034;-71
2022/10/21 14:05:45;;;;;;;5.25;0.63;;;;;;;;;;5004208;28;20026;-71
2022/10/21 14:08:26;;;;;;;4.55;1.27;;;;;;;;;;5005358;28;20030;-71
2022/10/21 14:10:52;;;;;;;5.22;1.55;;;;;;;;;;5003613;28;20061;-72
2022/10/21 14:13:23;;;;;;;7.50;1.45;;;;;;;;;;5001497;28;20539;-71
2022/10/21 14:15:49;;;;;;;4.57;1.38;;;;;;;;;;5003789;28;20025;-71
2022/10/21 14:18:23;;;;;;;7.68;2.65;;;;;;;;;;5002960;28;20080;-71
2022/10/21 14:20:49;;;;;;;6.40;1.60;;;;;;;;;;5005382;28;20029;-71
2022/10/21 14:23:19;;;;;;;3.13;0.75;;;;;;;;;;5002140;28;20030;-71
2022/10/21 14:25:47;;;;;;;3.13;1.00;;;;;;;;;;5006404;28;20458;-71
2022/10/21 14:28:13;;;;;;;4.93;1.02;;;;;;;;;;5004484;28;20057;-71
2022/10/21 14:30:42;;;;;;;5.20;0.90;;;;;;;;;;5005325;28;20049;-71
2022/10/21 14:33:14;;;;;;;5.88;0.70;;;;;;;;;;5000105;28;20033;-71
2022/10/21 14:35:40;;;;;;;3.42;0.68;;;;;;;;;;5006136;28;20465;-71
2022/10/21 14:38:33;;;;;;;5.00;0.80;;;;;;;;;;5004367;28;20052;-71
2022/10/21 14:41:01;;;;;;;4.20;1.42;;;;;;;;;;5003133;28;20040;-71
2022/10/21 14:43:36;;;;;;;4.75;0.90;;;;;;;;;;5005783;28;20034;-71
2022/10/21 14:46:04;;;;;;;5.50;0.77;;;;;;;;;;5001097;28;20037;-71
2022/10/21 14:48:31;;;;;;;5.82;1.00;;;;;;;;;;4999287;28;20105;-71